Time;durP1;ratioP1;P1;durP2;ratioP2;P2;SDS_P1;SDS_P2;PMS_P1;PMS_P2;Temp;Humidity;BMP_temperature;BMP_pressure;BME280_temperature;BME280_humidity;BME280_pressure;Samples;Min_cycle;Max_cycle;Signal;HPM_P1;HPM_P2
2021/04/01 00:00:26;;;;;;;8.499999;4.05;;;;;;;7.1;48.52539;95553.8;;;;
2021/04/01 00:01:32;;;;;;;8.499999;4.05;;;;;;;7.1;48.52539;95553.8;;;;
2021/04/01 00:02:33;;;;;;;7.050001;4.1;;;;;;;7.06;49.18457;95546.67;;;;
2021/04/01 00:03:33;;;;;;;7.050001;4.1;;;;;;;7.06;49.18457;95546.67;;;;
2021/04/01 00:04:34;;;;;;;7.050001;4.1;;;;;;;7.06;49.18457;95546.67;;;;
2021/04/01 00:05:35;;;;;;;7.050001;4.1;;;;;;;7.06;49.18457;95546.67;;;;
2021/04/01 00:06:35;;;;;;;7.050001;4.1;;;;;;;7.06;49.18457;95546.67;;;;
2021/04/01 00:07:36;;;;;;;7.050001;4.1;;;;;;;7.06;49.18457;95546.67;;;;
2021/04/01 00:08:36;;;;;;;7.050001;4.1;;;;;;;7.06;49.18457;95546.67;;;;
2021/04/01 00:09:37;;;;;;;7.050001;4.1;;;;;;;7.06;49.18457;95546.67;;;;
2021/04/01 00:10:37;;;;;;;7.050001;4.1;;;;;;;7.06;49.18457;95546.67;;;;
2021/04/01 00:11:40;;;;;;;7.050001;4.1;;;;;;;7.06;49.18457;95546.67;;;;
2021/04/01 00:12:41;;;;;;;7.050001;4.1;;;;;;;7.06;49.18457;95546.67;;;;
2021/04/01 00:13:41;;;;;;;7.7;3.85;;;;;;;7.18;49.26172;95537.48;;;;
2021/04/01 00:14:42;;;;;;;7.7;3.85;;;;;;;7.18;49.26172;95537.48;;;;
2021/04/01 00:15:43;;;;;;;7.7;3.85;;;;;;;7.18;49.26172;95537.48;;;;
2021/04/01 00:16:44;;;;;;;7.7;3.85;;;;;;;7.18;49.26172;95537.48;;;;
2021/04/01 00:17:45;;;;;;;7.7;3.85;;;;;;;7.18;49.26172;95537.48;;;;
2021/04/01 00:18:46;;;;;;;7.7;3.85;;;;;;;7.18;49.26172;95537.48;;;;
2021/04/01 00:19:46;;;;;;;7.7;3.85;;;;;;;7.18;49.26172;95537.48;;;;
2021/04/01 00:20:47;;;;;;;7.7;3.85;;;;;;;7.18;49.26172;95537.48;;;;
2021/04/01 00:21:48;;;;;;;7.7;3.85;;;;;;;7.18;49.26172;95537.48;;;;
2021/04/01 00:22:48;;;;;;;7.7;3.85;;;;;;;7.18;49.26172;95537.48;;;;
2021/04/01 00:23:49;;;;;;;5.95;3.85;;;;;;;7.18;49.61621;95523.52;;;;
2021/04/01 00:24:49;;;;;;;5.95;3.85;;;;;;;7.18;49.61621;95523.52;;;;
2021/04/01 00:25:50;;;;;;;5.95;3.85;;;;;;;7.18;49.61621;95523.52;;;;
2021/04/01 00:26:51;;;;;;;5.95;3.85;;;;;;;7.18;49.61621;95523.52;;;;
2021/04/01 00:27:51;;;;;;;5.95;3.85;;;;;;;7.18;49.61621;95523.52;;;;
2021/04/01 00:28:52;;;;;;;5.95;3.85;;;;;;;7.18;49.61621;95523.52;;;;
2021/04/01 00:29:52;;;;;;;5.95;3.85;;;;;;;7.18;49.61621;95523.52;;;;
2021/04/01 00:30:53;;;;;;;5.95;3.85;;;;;;;7.18;49.61621;95523.52;;;;
2021/04/01 00:31:54;;;;;;;5.95;3.85;;;;;;;7.18;49.61621;95523.52;;;;
2021/04/01 00:32:54;;;;;;;5.95;3.85;;;;;;;7.18;49.61621;95523.52;;;;
2021/04/01 00:33:55;;;;;;;5.95;3.85;;;;;;;7.18;49.61621;95523.52;;;;
2021/04/01 00:34:55;;;;;;;7.15;4.099999;;;;;;;7.29;49.7666;95524.22;;;;
2021/04/01 00:35:56;;;;;;;7.15;4.099999;;;;;;;7.29;49.7666;95524.22;;;;
2021/04/01 00:36:56;;;;;;;7.15;4.099999;;;;;;;7.29;49.7666;95524.22;;;;
2021/04/01 00:37:57;;;;;;;7.15;4.099999;;;;;;;7.29;49.7666;95524.22;;;;
2021/04/01 00:38:58;;;;;;;7.15;4.099999;;;;;;;7.29;49.7666;95524.22;;;;
2021/04/01 00:39:58;;;;;;;7.15;4.099999;;;;;;;7.29;49.7666;95524.22;;;;
2021/04/01 00:40:59;;;;;;;7.15;4.099999;;;;;;;7.29;49.7666;95524.22;;;;
2021/04/01 00:42:00;;;;;;;7.15;4.099999;;;;;;;7.29;49.7666;95524.22;;;;
2021/04/01 00:43:02;;;;;;;7.15;4.099999;;;;;;;7.29;49.7666;95524.22;;;;
2021/04/01 00:44:03;;;;;;;7.15;4.099999;;;;;;;7.29;49.7666;95524.22;;;;
2021/04/01 00:45:04;;;;;;;7.85;3.9;;;;;;;7.33;50.15723;95508.42;;;;
2021/04/01 00:46:07;;;;;;;7.85;3.9;;;;;;;7.33;50.15723;95508.42;;;;
2021/04/01 00:47:08;;;;;;;7.85;3.9;;;;;;;7.33;50.15723;95508.42;;;;
2021/04/01 00:48:09;;;;;;;7.85;3.9;;;;;;;7.33;50.15723;95508.42;;;;
2021/04/01 00:49:10;;;;;;;7.85;3.9;;;;;;;7.33;50.15723;95508.42;;;;
2021/04/01 00:50:10;;;;;;;7.85;3.9;;;;;;;7.33;50.15723;95508.42;;;;
2021/04/01 00:51:15;;;;;;;7.85;3.9;;;;;;;7.33;50.15723;95508.42;;;;
2021/04/01 00:52:15;;;;;;;7.85;3.9;;;;;;;7.33;50.15723;95508.42;;;;
2021/04/01 00:53:24;;;;;;;7.85;3.9;;;;;;;7.33;50.15723;95508.42;;;;
2021/04/01 00:54:24;;;;;;;7.85;3.9;;;;;;;7.33;50.15723;95508.42;;;;
2021/04/01 00:55:25;;;;;;;7.85;3.9;;;;;;;7.33;50.15723;95508.42;;;;
2021/04/01 00:56:28;;;;;;;8.700001;4.15;;;;;;;7.52;50.68164;95504.55;;;;
2021/04/01 00:57:28;;;;;;;8.700001;4.15;;;;;;;7.52;50.68164;95504.55;;;;
2021/04/01 00:58:30;;;;;;;8.700001;4.15;;;;;;;7.52;50.68164;95504.55;;;;
2021/04/01 00:59:31;;;;;;;8.700001;4.15;;;;;;;7.52;50.68164;95504.55;;;;
2021/04/01 01:00:32;;;;;;;8.700001;4.15;;;;;;;7.52;50.68164;95504.55;;;;
2021/04/01 01:01:39;;;;;;;8.700001;4.15;;;;;;;7.52;50.68164;95504.55;;;;
2021/04/01 01:02:40;;;;;;;8.700001;4.15;;;;;;;7.52;50.68164;95504.55;;;;
2021/04/01 01:03:41;;;;;;;8.700001;4.15;;;;;;;7.52;50.68164;95504.55;;;;
2021/04/01 01:04:41;;;;;;;8.700001;4.15;;;;;;;7.52;50.68164;95504.55;;;;
2021/04/01 01:05:44;;;;;;;8.700001;4.15;;;;;;;7.52;50.68164;95504.55;;;;
2021/04/01 01:06:44;;;;;;;9.25;4.15;;;;;;;7.51;51.02246;95513.62;;;;
2021/04/01 01:07:45;;;;;;;9.25;4.15;;;;;;;7.51;51.02246;95513.62;;;;
2021/04/01 01:08:46;;;;;;;9.25;4.15;;;;;;;7.51;51.02246;95513.62;;;;
2021/04/01 01:09:47;;;;;;;9.25;4.15;;;;;;;7.51;51.02246;95513.62;;;;
2021/04/01 01:10:48;;;;;;;9.25;4.15;;;;;;;7.51;51.02246;95513.62;;;;
2021/04/01 01:11:48;;;;;;;9.25;4.15;;;;;;;7.51;51.02246;95513.62;;;;
2021/04/01 01:12:49;;;;;;;9.25;4.15;;;;;;;7.51;51.02246;95513.62;;;;
2021/04/01 01:13:51;;;;;;;9.25;4.15;;;;;;;7.51;51.02246;95513.62;;;;
2021/04/01 01:14:51;;;;;;;9.25;4.15;;;;;;;7.51;51.02246;95513.62;;;;
2021/04/01 01:15:52;;;;;;;9.25;4.15;;;;;;;7.51;51.02246;95513.62;;;;
2021/04/01 01:16:53;;;;;;;9.25;4.15;;;;;;;7.51;51.02246;95513.62;;;;
2021/04/01 01:17:53;;;;;;;5.75;3.6;;;;;;;7.51;51.49316;95506.41;;;;
2021/04/01 01:18:55;;;;;;;5.75;3.6;;;;;;;7.51;51.49316;95506.41;;;;
2021/04/01 01:19:56;;;;;;;5.75;3.6;;;;;;;7.51;51.49316;95506.41;;;;
2021/04/01 01:20:57;;;;;;;5.75;3.6;;;;;;;7.51;51.49316;95506.41;;;;
2021/04/01 01:21:58;;;;;;;5.75;3.6;;;;;;;7.51;51.49316;95506.41;;;;
2021/04/01 01:22:59;;;;;;;5.75;3.6;;;;;;;7.51;51.49316;95506.41;;;;
2021/04/01 01:24:06;;;;;;;5.75;3.6;;;;;;;7.51;51.49316;95506.41;;;;
2021/04/01 01:25:12;;;;;;;5.75;3.6;;;;;;;7.51;51.49316;95506.41;;;;
2021/04/01 01:26:13;;;;;;;5.75;3.6;;;;;;;7.51;51.49316;95506.41;;;;
2021/04/01 01:27:14;;;;;;;5.75;3.6;;;;;;;7.51;51.49316;95506.41;;;;
2021/04/01 01:28:16;;;;;;;10.2;4.099999;;;;;;;7.55;51.81836;95502.77;;;;
2021/04/01 01:29:16;;;;;;;10.2;4.099999;;;;;;;7.55;51.81836;95502.77;;;;
2021/04/01 01:30:17;;;;;;;10.2;4.099999;;;;;;;7.55;51.81836;95502.77;;;;
2021/04/01 01:31:20;;;;;;;10.2;4.099999;;;;;;;7.55;51.81836;95502.77;;;;
2021/04/01 01:32:22;;;;;;;10.2;4.099999;;;;;;;7.55;51.81836;95502.77;;;;
2021/04/01 01:33:23;;;;;;;10.2;4.099999;;;;;;;7.55;51.81836;95502.77;;;;
2021/04/01 01:34:24;;;;;;;10.2;4.099999;;;;;;;7.55;51.81836;95502.77;;;;
2021/04/01 01:35:25;;;;;;;10.2;4.099999;;;;;;;7.55;51.81836;95502.77;;;;
2021/04/01 01:36:28;;;;;;;10.2;4.099999;;;;;;;7.55;51.81836;95502.77;;;;
2021/04/01 01:37:28;;;;;;;10.2;4.099999;;;;;;;7.55;51.81836;95502.77;;;;
2021/04/01 01:38:29;;;;;;;9.65;4.149999;;;;;;;7.54;52.25586;95498.83;;;;
2021/04/01 01:39:29;;;;;;;9.65;4.149999;;;;;;;7.54;52.25586;95498.83;;;;
2021/04/01 01:40:30;;;;;;;9.65;4.149999;;;;;;;7.54;52.25586;95498.83;;;;
2021/04/01 01:41:31;;;;;;;9.65;4.149999;;;;;;;7.54;52.25586;95498.83;;;;
2021/04/01 01:42:32;;;;;;;9.65;4.149999;;;;;;;7.54;52.25586;95498.83;;;;
2021/04/01 01:43:33;;;;;;;9.65;4.149999;;;;;;;7.54;52.25586;95498.83;;;;
2021/04/01 01:44:35;;;;;;;9.65;4.149999;;;;;;;7.54;52.25586;95498.83;;;;
2021/04/01 01:45:35;;;;;;;9.65;4.149999;;;;;;;7.54;52.25586;95498.83;;;;
2021/04/01 01:46:37;;;;;;;9.65;4.149999;;;;;;;7.54;52.25586;95498.83;;;;
2021/04/01 01:47:37;;;;;;;9.65;4.149999;;;;;;;7.54;52.25586;95498.83;;;;
2021/04/01 01:48:38;;;;;;;9.65;4.149999;;;;;;;7.54;52.25586;95498.83;;;;
2021/04/01 01:49:38;;;;;;;7.199999;4.050001;;;;;;;7.62;52.58691;95485.18;;;;
2021/04/01 01:50:40;;;;;;;7.199999;4.050001;;;;;;;7.62;52.58691;95485.18;;;;
2021/04/01 01:51:41;;;;;;;7.199999;4.050001;;;;;;;7.62;52.58691;95485.18;;;;
2021/04/01 01:52:42;;;;;;;7.199999;4.050001;;;;;;;7.62;52.58691;95485.18;;;;
2021/04/01 01:53:43;;;;;;;7.199999;4.050001;;;;;;;7.62;52.58691;95485.18;;;;
2021/04/01 01:54:44;;;;;;;7.199999;4.050001;;;;;;;7.62;52.58691;95485.18;;;;
2021/04/01 01:55:44;;;;;;;7.199999;4.050001;;;;;;;7.62;52.58691;95485.18;;;;
2021/04/01 01:56:45;;;;;;;7.199999;4.050001;;;;;;;7.62;52.58691;95485.18;;;;
2021/04/01 01:57:46;;;;;;;7.199999;4.050001;;;;;;;7.62;52.58691;95485.18;;;;
2021/04/01 01:58:46;;;;;;;7.199999;4.050001;;;;;;;7.62;52.58691;95485.18;;;;
2021/04/01 01:59:47;;;;;;;7.6;3.9;;;;;;;7.53;52.7041;95478.81;;;;
2021/04/01 02:00:49;;;;;;;7.6;3.9;;;;;;;7.53;52.7041;95478.81;;;;
2021/04/01 02:01:54;;;;;;;7.6;3.9;;;;;;;7.53;52.7041;95478.81;;;;
2021/04/01 02:02:54;;;;;;;7.6;3.9;;;;;;;7.53;52.7041;95478.81;;;;
2021/04/01 02:03:57;;;;;;;7.6;3.9;;;;;;;7.53;52.7041;95478.81;;;;
2021/04/01 02:05:02;;;;;;;7.6;3.9;;;;;;;7.53;52.7041;95478.81;;;;
2021/04/01 02:06:04;;;;;;;7.6;3.9;;;;;;;7.53;52.7041;95478.81;;;;
2021/04/01 02:07:04;;;;;;;7.6;3.9;;;;;;;7.53;52.7041;95478.81;;;;
2021/04/01 02:08:05;;;;;;;7.6;3.9;;;;;;;7.53;52.7041;95478.81;;;;
2021/04/01 02:09:08;;;;;;;7.6;3.9;;;;;;;7.53;52.7041;95478.81;;;;
2021/04/01 02:10:08;;;;;;;7.6;3.9;;;;;;;7.53;52.7041;95478.81;;;;
2021/04/01 02:11:09;;;;;;;7.6;3.7;;;;;;;7.43;53.2041;95477.61;;;;
2021/04/01 02:12:10;;;;;;;7.6;3.7;;;;;;;7.43;53.2041;95477.61;;;;
2021/04/01 02:13:12;;;;;;;7.6;3.7;;;;;;;7.43;53.2041;95477.61;;;;
2021/04/01 02:14:15;;;;;;;7.6;3.7;;;;;;;7.43;53.2041;95477.61;;;;
2021/04/01 02:15:16;;;;;;;7.6;3.7;;;;;;;7.43;53.2041;95477.61;;;;
2021/04/01 02:16:21;;;;;;;7.6;3.7;;;;;;;7.43;53.2041;95477.61;;;;
2021/04/01 02:17:23;;;;;;;7.6;3.7;;;;;;;7.43;53.2041;95477.61;;;;
2021/04/01 02:18:24;;;;;;;7.6;3.7;;;;;;;7.43;53.2041;95477.61;;;;
2021/04/01 02:19:27;;;;;;;7.6;3.7;;;;;;;7.43;53.2041;95477.61;;;;
2021/04/01 02:20:29;;;;;;;7.6;3.7;;;;;;;7.43;53.2041;95477.61;;;;
2021/04/01 02:21:29;;;;;;;7.75;3.8;;;;;;;7.3;53.57422;95475.37;;;;
2021/04/01 02:22:30;;;;;;;7.75;3.8;;;;;;;7.3;53.57422;95475.37;;;;
2021/04/01 02:23:30;;;;;;;7.75;3.8;;;;;;;7.3;53.57422;95475.37;;;;
2021/04/01 02:24:32;;;;;;;7.75;3.8;;;;;;;7.3;53.57422;95475.37;;;;
2021/04/01 02:25:33;;;;;;;7.75;3.8;;;;;;;7.3;53.57422;95475.37;;;;
2021/04/01 02:26:34;;;;;;;7.75;3.8;;;;;;;7.3;53.57422;95475.37;;;;
2021/04/01 02:27:34;;;;;;;7.75;3.8;;;;;;;7.3;53.57422;95475.37;;;;
2021/04/01 02:28:35;;;;;;;7.75;3.8;;;;;;;7.3;53.57422;95475.37;;;;
2021/04/01 02:29:36;;;;;;;7.75;3.8;;;;;;;7.3;53.57422;95475.37;;;;
2021/04/01 02:30:37;;;;;;;7.75;3.8;;;;;;;7.3;53.57422;95475.37;;;;
2021/04/01 02:31:39;;;;;;;7.1;3.65;;;;;;;7.3;54.0127;95464.12;;;;
2021/04/01 02:32:39;;;;;;;7.1;3.65;;;;;;;7.3;54.0127;95464.12;;;;
2021/04/01 02:33:40;;;;;;;7.1;3.65;;;;;;;7.3;54.0127;95464.12;;;;
2021/04/01 02:34:40;;;;;;;7.1;3.65;;;;;;;7.3;54.0127;95464.12;;;;
2021/04/01 02:35:41;;;;;;;7.1;3.65;;;;;;;7.3;54.0127;95464.12;;;;
2021/04/01 02:36:42;;;;;;;7.1;3.65;;;;;;;7.3;54.0127;95464.12;;;;
2021/04/01 02:37:43;;;;;;;7.1;3.65;;;;;;;7.3;54.0127;95464.12;;;;
2021/04/01 02:38:43;;;;;;;7.1;3.65;;;;;;;7.3;54.0127;95464.12;;;;
2021/04/01 02:39:44;;;;;;;7.1;3.65;;;;;;;7.3;54.0127;95464.12;;;;
2021/04/01 02:40:44;;;;;;;7.1;3.65;;;;;;;7.3;54.0127;95464.12;;;;
2021/04/01 02:41:45;;;;;;;7.1;3.65;;;;;;;7.3;54.0127;95464.12;;;;
2021/04/01 02:42:46;;;;;;;6.8;3.85;;;;;;;7.38;54.38477;95466.14;;;;
2021/04/01 02:43:46;;;;;;;6.8;3.85;;;;;;;7.38;54.38477;95466.14;;;;
2021/04/01 02:44:47;;;;;;;6.8;3.85;;;;;;;7.38;54.38477;95466.14;;;;
2021/04/01 02:45:47;;;;;;;6.8;3.85;;;;;;;7.38;54.38477;95466.14;;;;
2021/04/01 02:46:48;;;;;;;6.8;3.85;;;;;;;7.38;54.38477;95466.14;;;;
2021/04/01 02:47:48;;;;;;;6.8;3.85;;;;;;;7.38;54.38477;95466.14;;;;
2021/04/01 02:48:49;;;;;;;6.8;3.85;;;;;;;7.38;54.38477;95466.14;;;;
2021/04/01 02:49:49;;;;;;;6.8;3.85;;;;;;;7.38;54.38477;95466.14;;;;
2021/04/01 02:50:50;;;;;;;6.8;3.85;;;;;;;7.38;54.38477;95466.14;;;;
2021/04/01 02:51:51;;;;;;;6.8;3.85;;;;;;;7.38;54.38477;95466.14;;;;
2021/04/01 02:52:51;;;;;;;6.8;3.85;;;;;;;7.38;54.38477;95466.14;;;;
2021/04/01 02:53:52;;;;;;;8.150002;4.050001;;;;;;;7.36;54.43555;95457.05;;;;
2021/04/01 02:54:52;;;;;;;8.150002;4.050001;;;;;;;7.36;54.43555;95457.05;;;;
2021/04/01 02:55:53;;;;;;;8.150002;4.050001;;;;;;;7.36;54.43555;95457.05;;;;
2021/04/01 02:56:54;;;;;;;8.150002;4.050001;;;;;;;7.36;54.43555;95457.05;;;;
2021/04/01 02:57:54;;;;;;;8.150002;4.050001;;;;;;;7.36;54.43555;95457.05;;;;
2021/04/01 02:58:55;;;;;;;8.150002;4.050001;;;;;;;7.36;54.43555;95457.05;;;;
2021/04/01 02:59:56;;;;;;;8.150002;4.050001;;;;;;;7.36;54.43555;95457.05;;;;
2021/04/01 03:00:57;;;;;;;8.150002;4.050001;;;;;;;7.36;54.43555;95457.05;;;;
2021/04/01 03:01:58;;;;;;;8.150002;4.050001;;;;;;;7.36;54.43555;95457.05;;;;
2021/04/01 03:03:03;;;;;;;8.150002;4.050001;;;;;;;7.36;54.43555;95457.05;;;;
2021/04/01 03:04:06;;;;;;;8.199999;3.95;;;;;;;7.23;54.6875;95461.94;;;;
2021/04/01 03:05:07;;;;;;;8.199999;3.95;;;;;;;7.23;54.6875;95461.94;;;;
2021/04/01 03:06:08;;;;;;;8.199999;3.95;;;;;;;7.23;54.6875;95461.94;;;;
2021/04/01 03:07:09;;;;;;;8.199999;3.95;;;;;;;7.23;54.6875;95461.94;;;;
2021/04/01 03:08:10;;;;;;;8.199999;3.95;;;;;;;7.23;54.6875;95461.94;;;;
2021/04/01 03:09:11;;;;;;;8.199999;3.95;;;;;;;7.23;54.6875;95461.94;;;;
2021/04/01 03:10:11;;;;;;;8.199999;3.95;;;;;;;7.23;54.6875;95461.94;;;;
2021/04/01 03:11:13;;;;;;;8.199999;3.95;;;;;;;7.23;54.6875;95461.94;;;;
2021/04/01 03:12:14;;;;;;;8.199999;3.95;;;;;;;7.23;54.6875;95461.94;;;;
2021/04/01 03:13:15;;;;;;;8.199999;3.95;;;;;;;7.23;54.6875;95461.94;;;;
2021/04/01 03:14:15;;;;;;;8.199999;3.95;;;;;;;7.23;54.6875;95461.94;;;;
2021/04/01 03:15:16;;;;;;;7.450001;4.3;;;;;;;7.09;55.00977;95454.16;;;;
2021/04/01 03:16:17;;;;;;;7.450001;4.3;;;;;;;7.09;55.00977;95454.16;;;;
2021/04/01 03:17:17;;;;;;;7.450001;4.3;;;;;;;7.09;55.00977;95454.16;;;;
2021/04/01 03:18:18;;;;;;;7.450001;4.3;;;;;;;7.09;55.00977;95454.16;;;;
2021/04/01 03:19:20;;;;;;;7.450001;4.3;;;;;;;7.09;55.00977;95454.16;;;;
2021/04/01 03:20:20;;;;;;;7.450001;4.3;;;;;;;7.09;55.00977;95454.16;;;;
2021/04/01 03:21:21;;;;;;;7.450001;4.3;;;;;;;7.09;55.00977;95454.16;;;;
2021/04/01 03:22:21;;;;;;;7.450001;4.3;;;;;;;7.09;55.00977;95454.16;;;;
2021/04/01 03:23:23;;;;;;;7.450001;4.3;;;;;;;7.09;55.00977;95454.16;;;;
2021/04/01 03:24:24;;;;;;;7.450001;4.3;;;;;;;7.09;55.00977;95454.16;;;;
2021/04/01 03:25:24;;;;;;;6.9;3.8;;;;;;;6.94;55.23633;95450.87;;;;
2021/04/01 03:26:26;;;;;;;6.9;3.8;;;;;;;6.94;55.23633;95450.87;;;;
2021/04/01 03:27:27;;;;;;;6.9;3.8;;;;;;;6.94;55.23633;95450.87;;;;
2021/04/01 03:28:28;;;;;;;6.9;3.8;;;;;;;6.94;55.23633;95450.87;;;;
2021/04/01 03:29:28;;;;;;;6.9;3.8;;;;;;;6.94;55.23633;95450.87;;;;
2021/04/01 03:30:30;;;;;;;6.9;3.8;;;;;;;6.94;55.23633;95450.87;;;;
2021/04/01 03:31:30;;;;;;;6.9;3.8;;;;;;;6.94;55.23633;95450.87;;;;
2021/04/01 03:32:31;;;;;;;6.9;3.8;;;;;;;6.94;55.23633;95450.87;;;;
2021/04/01 03:33:33;;;;;;;6.9;3.8;;;;;;;6.94;55.23633;95450.87;;;;
2021/04/01 03:34:33;;;;;;;6.9;3.8;;;;;;;6.94;55.23633;95450.87;;;;
2021/04/01 03:35:34;;;;;;;6.9;3.8;;;;;;;6.94;55.23633;95450.87;;;;
2021/04/01 03:36:34;;;;;;;6.75;3.4;;;;;;;6.94;55.48145;95445.92;;;;
2021/04/01 03:37:35;;;;;;;6.75;3.4;;;;;;;6.94;55.48145;95445.92;;;;
2021/04/01 03:38:36;;;;;;;6.75;3.4;;;;;;;6.94;55.48145;95445.92;;;;
2021/04/01 03:39:36;;;;;;;6.75;3.4;;;;;;;6.94;55.48145;95445.92;;;;
2021/04/01 03:40:37;;;;;;;6.75;3.4;;;;;;;6.94;55.48145;95445.92;;;;
2021/04/01 03:41:37;;;;;;;6.75;3.4;;;;;;;6.94;55.48145;95445.92;;;;
2021/04/01 03:42:38;;;;;;;6.75;3.4;;;;;;;6.94;55.48145;95445.92;;;;
2021/04/01 03:43:39;;;;;;;6.75;3.4;;;;;;;6.94;55.48145;95445.92;;;;
2021/04/01 03:44:40;;;;;;;6.75;3.4;;;;;;;6.94;55.48145;95445.92;;;;
2021/04/01 03:45:41;;;;;;;6.75;3.4;;;;;;;6.94;55.48145;95445.92;;;;
2021/04/01 03:46:42;;;;;;;8.049999;3.75;;;;;;;6.84;55.71582;95457.08;;;;
2021/04/01 03:47:43;;;;;;;8.049999;3.75;;;;;;;6.84;55.71582;95457.08;;;;
2021/04/01 03:48:44;;;;;;;8.049999;3.75;;;;;;;6.84;55.71582;95457.08;;;;
2021/04/01 03:49:45;;;;;;;8.049999;3.75;;;;;;;6.84;55.71582;95457.08;;;;
2021/04/01 03:50:45;;;;;;;8.049999;3.75;;;;;;;6.84;55.71582;95457.08;;;;
2021/04/01 03:51:46;;;;;;;8.049999;3.75;;;;;;;6.84;55.71582;95457.08;;;;
2021/04/01 03:52:46;;;;;;;8.049999;3.75;;;;;;;6.84;55.71582;95457.08;;;;
2021/04/01 03:53:47;;;;;;;8.049999;3.75;;;;;;;6.84;55.71582;95457.08;;;;
2021/04/01 03:54:49;;;;;;;8.049999;3.75;;;;;;;6.84;55.71582;95457.08;;;;
2021/04/01 03:55:51;;;;;;;8.049999;3.75;;;;;;;6.84;55.71582;95457.08;;;;
2021/04/01 03:56:51;;;;;;;8.049999;3.75;;;;;;;6.84;55.71582;95457.08;;;;
2021/04/01 03:57:56;;;;;;;5.85;3.149999;;;;;;;6.87;55.97461;95449.56;;;;
2021/04/01 03:59:00;;;;;;;5.85;3.149999;;;;;;;6.87;55.97461;95449.56;;;;
2021/04/01 04:00:08;;;;;;;5.85;3.149999;;;;;;;6.87;55.97461;95449.56;;;;
2021/04/01 04:01:38;;;;;;;5.85;3.149999;;;;;;;6.87;55.97461;95449.56;;;;
2021/04/01 04:02:45;;;;;;;5.85;3.149999;;;;;;;6.87;55.97461;95449.56;;;;
2021/04/01 04:03:56;;;;;;;5.85;3.149999;;;;;;;6.87;55.97461;95449.56;;;;
2021/04/01 04:05:19;;;;;;;5.85;3.149999;;;;;;;6.87;55.97461;95449.56;;;;
2021/04/01 04:06:33;;;;;;;5.85;3.149999;;;;;;;6.87;55.97461;95449.56;;;;
2021/04/01 04:08:18;;;;;;;5.85;3.149999;;;;;;;6.87;55.97461;95449.56;;;;
2021/04/01 04:09:39;;;;;;;6.35;3.6;;;;;;;6.82;56.05371;95446.66;;;;
2021/04/01 04:10:49;;;;;;;6.35;3.6;;;;;;;6.82;56.05371;95446.66;;;;
2021/04/01 04:11:53;;;;;;;6.35;3.6;;;;;;;6.82;56.05371;95446.66;;;;
2021/04/01 04:13:01;;;;;;;6.35;3.6;;;;;;;6.82;56.05371;95446.66;;;;
2021/04/01 04:14:08;;;;;;;6.35;3.6;;;;;;;6.82;56.05371;95446.66;;;;
2021/04/01 04:15:10;;;;;;;6.35;3.6;;;;;;;6.82;56.05371;95446.66;;;;
2021/04/01 04:16:11;;;;;;;6.35;3.6;;;;;;;6.82;56.05371;95446.66;;;;
2021/04/01 04:17:11;;;;;;;6.35;3.6;;;;;;;6.82;56.05371;95446.66;;;;
2021/04/01 04:18:12;;;;;;;6.35;3.6;;;;;;;6.82;56.05371;95446.66;;;;
2021/04/01 04:19:13;;;;;;;6.8;3.45;;;;;;;6.85;56.25;95433.25;;;;
2021/04/01 04:20:13;;;;;;;6.8;3.45;;;;;;;6.85;56.25;95433.25;;;;
2021/04/01 04:21:15;;;;;;;6.8;3.45;;;;;;;6.85;56.25;95433.25;;;;
2021/04/01 04:22:15;;;;;;;6.8;3.45;;;;;;;6.85;56.25;95433.25;;;;
2021/04/01 04:23:18;;;;;;;6.8;3.45;;;;;;;6.85;56.25;95433.25;;;;
2021/04/01 04:24:19;;;;;;;6.8;3.45;;;;;;;6.85;56.25;95433.25;;;;
2021/04/01 04:25:20;;;;;;;6.8;3.45;;;;;;;6.85;56.25;95433.25;;;;
2021/04/01 04:26:21;;;;;;;6.8;3.45;;;;;;;6.85;56.25;95433.25;;;;
2021/04/01 04:27:44;;;;;;;6.8;3.45;;;;;;;6.85;56.25;95433.25;;;;
2021/04/01 04:28:45;;;;;;;6.8;3.45;;;;;;;6.85;56.25;95433.25;;;;
2021/04/01 04:29:45;;;;;;;5.5;3.35;;;;;;;6.95;56.16602;95427.01;;;;
2021/04/01 04:30:46;;;;;;;5.5;3.35;;;;;;;6.95;56.16602;95427.01;;;;
2021/04/01 04:31:46;;;;;;;5.5;3.35;;;;;;;6.95;56.16602;95427.01;;;;
2021/04/01 04:32:47;;;;;;;5.5;3.35;;;;;;;6.95;56.16602;95427.01;;;;
2021/04/01 04:33:47;;;;;;;5.5;3.35;;;;;;;6.95;56.16602;95427.01;;;;
2021/04/01 04:34:48;;;;;;;5.5;3.35;;;;;;;6.95;56.16602;95427.01;;;;
2021/04/01 04:35:49;;;;;;;5.5;3.35;;;;;;;6.95;56.16602;95427.01;;;;
2021/04/01 04:36:49;;;;;;;5.5;3.35;;;;;;;6.95;56.16602;95427.01;;;;
2021/04/01 04:37:50;;;;;;;5.5;3.35;;;;;;;6.95;56.16602;95427.01;;;;
2021/04/01 04:38:50;;;;;;;5.5;3.35;;;;;;;6.95;56.16602;95427.01;;;;
2021/04/01 04:39:51;;;;;;;6.4;3.400001;;;;;;;7.03;56.16602;95434.86;;;;
2021/04/01 04:40:55;;;;;;;6.4;3.400001;;;;;;;7.03;56.16602;95434.86;;;;
2021/04/01 04:41:56;;;;;;;6.4;3.400001;;;;;;;7.03;56.16602;95434.86;;;;
2021/04/01 04:42:57;;;;;;;6.4;3.400001;;;;;;;7.03;56.16602;95434.86;;;;
2021/04/01 04:43:58;;;;;;;6.4;3.400001;;;;;;;7.03;56.16602;95434.86;;;;
2021/04/01 04:44:58;;;;;;;6.4;3.400001;;;;;;;7.03;56.16602;95434.86;;;;
2021/04/01 04:45:59;;;;;;;6.4;3.400001;;;;;;;7.03;56.16602;95434.86;;;;
2021/04/01 04:46:59;;;;;;;6.4;3.400001;;;;;;;7.03;56.16602;95434.86;;;;
2021/04/01 04:48:00;;;;;;;6.4;3.400001;;;;;;;7.03;56.16602;95434.86;;;;
2021/04/01 04:49:01;;;;;;;6.4;3.400001;;;;;;;7.03;56.16602;95434.86;;;;
2021/04/01 04:50:01;;;;;;;6.4;3.400001;;;;;;;7.03;56.16602;95434.86;;;;
2021/04/01 04:51:03;;;;;;;8.15;3.35;;;;;;;6.99;56.40625;95437.56;;;;
2021/04/01 04:52:04;;;;;;;8.15;3.35;;;;;;;6.99;56.40625;95437.56;;;;
2021/04/01 04:53:05;;;;;;;8.15;3.35;;;;;;;6.99;56.40625;95437.56;;;;
2021/04/01 04:54:06;;;;;;;8.15;3.35;;;;;;;6.99;56.40625;95437.56;;;;
2021/04/01 04:55:09;;;;;;;8.15;3.35;;;;;;;6.99;56.40625;95437.56;;;;
2021/04/01 04:56:12;;;;;;;8.15;3.35;;;;;;;6.99;56.40625;95437.56;;;;
2021/04/01 04:57:17;;;;;;;8.15;3.35;;;;;;;6.99;56.40625;95437.56;;;;
2021/04/01 04:58:22;;;;;;;8.15;3.35;;;;;;;6.99;56.40625;95437.56;;;;
2021/04/01 04:59:28;;;;;;;8.15;3.35;;;;;;;6.99;56.40625;95437.56;;;;
2021/04/01 05:04:55;;;;;;;5.55;2.9;;;;;;;7.07;56.62012;95444.02;;;;
2021/04/01 05:05:56;;;;;;;5.55;2.9;;;;;;;7.07;56.62012;95444.02;;;;
2021/04/01 05:06:56;;;;;;;5.55;2.9;;;;;;;7.07;56.62012;95444.02;;;;
2021/04/01 05:07:57;;;;;;;5.55;2.9;;;;;;;7.07;56.62012;95444.02;;;;
2021/04/01 05:08:57;;;;;;;5.55;2.9;;;;;;;7.07;56.62012;95444.02;;;;
2021/04/01 05:09:58;;;;;;;5.55;2.9;;;;;;;7.07;56.62012;95444.02;;;;
2021/04/01 05:10:58;;;;;;;5.55;2.9;;;;;;;7.07;56.62012;95444.02;;;;
2021/04/01 05:11:59;;;;;;;7.799999;3.35;;;;;;;7.32;56.39648;95449.55;;;;
2021/04/01 05:13:08;;;;;;;7.799999;3.35;;;;;;;7.32;56.39648;95449.55;;;;
2021/04/01 05:14:08;;;;;;;7.799999;3.35;;;;;;;7.32;56.39648;95449.55;;;;
2021/04/01 05:15:09;;;;;;;7.799999;3.35;;;;;;;7.32;56.39648;95449.55;;;;
2021/04/01 05:16:10;;;;;;;7.799999;3.35;;;;;;;7.32;56.39648;95449.55;;;;
2021/04/01 05:17:14;;;;;;;7.799999;3.35;;;;;;;7.32;56.39648;95449.55;;;;
2021/04/01 05:18:17;;;;;;;7.799999;3.35;;;;;;;7.32;56.39648;95449.55;;;;
2021/04/01 05:19:22;;;;;;;7.799999;3.35;;;;;;;7.32;56.39648;95449.55;;;;
2021/04/01 05:20:22;;;;;;;7.799999;3.35;;;;;;;7.32;56.39648;95449.55;;;;
2021/04/01 05:21:30;;;;;;;7.799999;3.35;;;;;;;7.32;56.39648;95449.55;;;;
2021/04/01 05:22:36;;;;;;;7.799999;3.35;;;;;;;7.32;56.39648;95449.55;;;;
2021/04/01 05:23:38;;;;;;;4.849999;2.95;;;;;;;7.6;56.10059;95451.9;;;;
2021/04/01 05:24:39;;;;;;;4.849999;2.95;;;;;;;7.6;56.10059;95451.9;;;;
2021/04/01 05:25:40;;;;;;;4.849999;2.95;;;;;;;7.6;56.10059;95451.9;;;;
2021/04/01 05:26:59;;;;;;;4.849999;2.95;;;;;;;7.6;56.10059;95451.9;;;;
2021/04/01 05:28:04;;;;;;;4.849999;2.95;;;;;;;7.6;56.10059;95451.9;;;;
2021/04/01 05:29:07;;;;;;;4.849999;2.95;;;;;;;7.6;56.10059;95451.9;;;;
2021/04/01 05:30:07;;;;;;;4.849999;2.95;;;;;;;7.6;56.10059;95451.9;;;;
2021/04/01 05:31:11;;;;;;;4.849999;2.95;;;;;;;7.6;56.10059;95451.9;;;;
2021/04/01 05:32:12;;;;;;;4.849999;2.95;;;;;;;7.6;56.10059;95451.9;;;;
2021/04/01 05:33:16;;;;;;;7.05;3.1;;;;;;;7.84;56.06934;95449.33;;;;
2021/04/01 05:34:17;;;;;;;7.05;3.1;;;;;;;7.84;56.06934;95449.33;;;;
2021/04/01 05:35:18;;;;;;;7.05;3.1;;;;;;;7.84;56.06934;95449.33;;;;
2021/04/01 05:36:22;;;;;;;7.05;3.1;;;;;;;7.84;56.06934;95449.33;;;;
2021/04/01 05:37:25;;;;;;;7.05;3.1;;;;;;;7.84;56.06934;95449.33;;;;
2021/04/01 05:38:26;;;;;;;7.05;3.1;;;;;;;7.84;56.06934;95449.33;;;;
2021/04/01 05:39:28;;;;;;;7.05;3.1;;;;;;;7.84;56.06934;95449.33;;;;
2021/04/01 05:40:29;;;;;;;7.05;3.1;;;;;;;7.84;56.06934;95449.33;;;;
2021/04/01 05:41:30;;;;;;;7.05;3.1;;;;;;;7.84;56.06934;95449.33;;;;
2021/04/01 05:42:35;;;;;;;7.05;3.1;;;;;;;7.84;56.06934;95449.33;;;;
2021/04/01 05:43:38;;;;;;;7.05;3.1;;;;;;;7.84;56.06934;95449.33;;;;
2021/04/01 05:44:45;;;;;;;6.15;2.8;;;;;;;8.18;55.79199;95450.26;;;;
2021/04/01 05:45:48;;;;;;;6.15;2.8;;;;;;;8.18;55.79199;95450.26;;;;
2021/04/01 05:46:56;;;;;;;6.15;2.8;;;;;;;8.18;55.79199;95450.26;;;;
2021/04/01 05:47:59;;;;;;;6.15;2.8;;;;;;;8.18;55.79199;95450.26;;;;
2021/04/01 05:49:10;;;;;;;6.15;2.8;;;;;;;8.18;55.79199;95450.26;;;;
2021/04/01 05:50:25;;;;;;;6.15;2.8;;;;;;;8.18;55.79199;95450.26;;;;
2021/04/01 05:51:43;;;;;;;6.15;2.8;;;;;;;8.18;55.79199;95450.26;;;;
2021/04/01 05:53:31;;;;;;;6.15;2.8;;;;;;;8.18;55.79199;95450.26;;;;
2021/04/01 06:00:12;;;;;;;7.05;2.65;;;;;;;8.56;55.57227;95457.87;;;;
2021/04/01 06:01:28;;;;;;;7.05;2.65;;;;;;;8.56;55.57227;95457.87;;;;
2021/04/01 06:02:33;;;;;;;7.05;2.65;;;;;;;8.56;55.57227;95457.87;;;;